INFORMAÇÕES METEOROLÓGICAS
METAR FOR SBBW
ADDS - METARS form results

(0255 UTC 27 June 2022)
Data provider http://aviationweather.gov/metar/data/
 
Forecast for: SBBW (BERRA DO GARCAS , BR)
Text: TAF SBBW 261545Z 2618/2706 11009KT CAVOK TX32/2618Z TN19/2705Z
Forecast period: 1800 to 2000 UTC 26 June 2022
Forecast type: FROM: standard forecast or significant change
Winds: from the ESE (110 degrees) at 10 MPH (9 knots; 4.6 m/s)
Visibility: 6 or more miles (10+ km)
Ceiling: unknown
Clouds: missing
Weather: no significant weather forecast for this period
Text: BECMG 2620/2622 10002KT RMK PGM
Forecast period: 2000 UTC 26 June 2022 to 0600 UTC 27 June 2022
Forecast type: BECOMING: Conditions expected to become as follows by 2200 UTC 26 June 2022
Winds: from the E (100 degrees) at 2 MPH (2 knots; 1.0 m/s)
Visibility: 6 or more miles (10+ km)
Ceiling: unknown
Clouds: missing
Weather: no significant weather forecast for this period

 MAPA DO AEROPORTO

 INFORMAÇÕES DA PISTA
Pista 7 Tamanho da pista 5243 ft Largura da pista 98 ft
Elevação da pista 0 ft Ranhura da pista 0 ft Proa da pista 0
Pista 25 Tamanho da pista 5243 ft Largura da pista 98 ft
Elevação da pista 0 ft Ranhura da pista 0 ft Proa da pista 0

 FREQUÊNCIAS DO AEROPORTO
Tipo AFIS Nome GARCAS RDO Frequência 125.9 MHZ

 AUXÍLIOS DE NAVEGAÇÃO PRÓXIMOS AO AEROPORTO
Tipo VOR-DME Nome Garcas Frequência 113300 KHZ
Tipo NDB Nome Garcas Frequência 320 KHZ